sensor_id;sensor_type;location;lat;lon;timestamp;P1;durP1;ratioP1;P2;durP2;ratioP2
12966;SDS011;6548;49.996;8.238;2023-01-30T00:01:32;22.33;;;9.85;;
12966;SDS011;6548;49.996;8.238;2023-01-30T00:03:59;20.67;;;10.27;;
12966;SDS011;6548;49.996;8.238;2023-01-30T00:06:24;22.65;;;10.38;;
12966;SDS011;6548;49.996;8.238;2023-01-30T00:08:51;25.83;;;11.80;;
12966;SDS011;6548;49.996;8.238;2023-01-30T00:11:17;21.42;;;10.40;;
12966;SDS011;6548;49.996;8.238;2023-01-30T00:13:43;24.80;;;10.85;;
12966;SDS011;6548;49.996;8.238;2023-01-30T00:16:10;20.13;;;8.68;;
12966;SDS011;6548;49.996;8.238;2023-01-30T00:18:36;21.13;;;10.05;;
12966;SDS011;6548;49.996;8.238;2023-01-30T00:21:03;23.75;;;9.80;;
12966;SDS011;6548;49.996;8.238;2023-01-30T00:23:30;21.02;;;8.55;;
12966;SDS011;6548;49.996;8.238;2023-01-30T00:25:57;22.65;;;9.68;;
12966;SDS011;6548;49.996;8.238;2023-01-30T00:28:23;19.80;;;9.07;;
12966;SDS011;6548;49.996;8.238;2023-01-30T00:30:51;21.25;;;8.55;;
12966;SDS011;6548;49.996;8.238;2023-01-30T00:33:17;12.45;;;6.22;;
12966;SDS011;6548;49.996;8.238;2023-01-30T00:35:44;12.85;;;6.28;;
12966;SDS011;6548;49.996;8.238;2023-01-30T00:38:10;16.48;;;6.72;;
12966;SDS011;6548;49.996;8.238;2023-01-30T00:40:36;19.17;;;8.52;;
12966;SDS011;6548;49.996;8.238;2023-01-30T00:43:01;17.00;;;6.80;;
12966;SDS011;6548;49.996;8.238;2023-01-30T00:45:45;25.58;;;9.60;;
12966;SDS011;6548;49.996;8.238;2023-01-30T00:48:31;23.98;;;11.02;;
12966;SDS011;6548;49.996;8.238;2023-01-30T00:50:56;25.70;;;8.60;;
12966;SDS011;6548;49.996;8.238;2023-01-30T00:53:22;25.30;;;11.60;;
12966;SDS011;6548;49.996;8.238;2023-01-30T00:55:51;20.63;;;9.07;;
12966;SDS011;6548;49.996;8.238;2023-01-30T00:58:18;23.35;;;12.20;;
12966;SDS011;6548;49.996;8.238;2023-01-30T01:00:45;26.50;;;10.63;;
12966;SDS011;6548;49.996;8.238;2023-01-30T01:03:10;15.05;;;7.53;;
12966;SDS011;6548;49.996;8.238;2023-01-30T01:05:36;18.13;;;8.60;;
12966;SDS011;6548;49.996;8.238;2023-01-30T01:08:01;14.55;;;6.30;;
12966;SDS011;6548;49.996;8.238;2023-01-30T01:10:27;23.90;;;9.82;;
12966;SDS011;6548;49.996;8.238;2023-01-30T01:12:53;22.27;;;9.05;;
12966;SDS011;6548;49.996;8.238;2023-01-30T01:15:20;23.65;;;6.75;;
12966;SDS011;6548;49.996;8.238;2023-01-30T01:17:47;14.52;;;7.72;;
12966;SDS011;6548;49.996;8.238;2023-01-30T01:20:13;15.50;;;6.57;;
12966;SDS011;6548;49.996;8.238;2023-01-30T01:22:39;17.65;;;7.30;;
12966;SDS011;6548;49.996;8.238;2023-01-30T01:25:05;13.77;;;7.10;;
12966;SDS011;6548;49.996;8.238;2023-01-30T01:27:31;16.80;;;9.40;;
12966;SDS011;6548;49.996;8.238;2023-01-30T01:29:59;17.92;;;11.05;;
12966;SDS011;6548;49.996;8.238;2023-01-30T01:32:25;22.98;;;10.13;;
12966;SDS011;6548;49.996;8.238;2023-01-30T01:34:51;19.13;;;8.52;;
12966;SDS011;6548;49.996;8.238;2023-01-30T01:37:16;14.90;;;8.85;;
12966;SDS011;6548;49.996;8.238;2023-01-30T01:39:42;18.00;;;8.20;;
12966;SDS011;6548;49.996;8.238;2023-01-30T01:42:28;17.63;;;7.63;;
12966;SDS011;6548;49.996;8.238;2023-01-30T01:44:58;20.92;;;9.98;;
12966;SDS011;6548;49.996;8.238;2023-01-30T01:47:37;24.35;;;9.80;;
12966;SDS011;6548;49.996;8.238;2023-01-30T01:50:20;20.42;;;8.20;;
12966;SDS011;6548;49.996;8.238;2023-01-30T01:52:49;20.90;;;7.80;;
12966;SDS011;6548;49.996;8.238;2023-01-30T01:55:18;14.40;;;7.55;;
12966;SDS011;6548;49.996;8.238;2023-01-30T01:57:47;16.45;;;8.45;;
12966;SDS011;6548;49.996;8.238;2023-01-30T02:00:18;25.45;;;11.75;;
12966;SDS011;6548;49.996;8.238;2023-01-30T02:02:47;16.88;;;9.05;;
12966;SDS011;6548;49.996;8.238;2023-01-30T02:05:20;14.52;;;8.05;;
12966;SDS011;6548;49.996;8.238;2023-01-30T02:07:49;16.88;;;8.25;;
12966;SDS011;6548;49.996;8.238;2023-01-30T02:10:18;19.63;;;9.55;;
12966;SDS011;6548;49.996;8.238;2023-01-30T02:12:47;20.88;;;10.45;;
12966;SDS011;6548;49.996;8.238;2023-01-30T02:15:15;13.55;;;6.07;;
12966;SDS011;6548;49.996;8.238;2023-01-30T02:17:42;18.60;;;8.30;;
12966;SDS011;6548;49.996;8.238;2023-01-30T02:20:15;12.68;;;6.63;;
12966;SDS011;6548;49.996;8.238;2023-01-30T02:23:15;13.85;;;7.90;;
12966;SDS011;6548;49.996;8.238;2023-01-30T02:32:03;21.05;;;10.43;;
12966;SDS011;6548;49.996;8.238;2023-01-30T02:40:31;20.55;;;10.05;;
12966;SDS011;6548;49.996;8.238;2023-01-30T02:48:39;13.20;;;6.78;;
12966;SDS011;6548;49.996;8.238;2023-01-30T02:51:12;12.38;;;7.65;;
12966;SDS011;6548;49.996;8.238;2023-01-30T02:53:44;18.63;;;8.75;;
12966;SDS011;6548;49.996;8.238;2023-01-30T02:56:11;13.65;;;6.68;;
12966;SDS011;6548;49.996;8.238;2023-01-30T02:58:38;16.13;;;8.18;;
12966;SDS011;6548;49.996;8.238;2023-01-30T03:04:07;16.98;;;9.63;;
12966;SDS011;6548;49.996;8.238;2023-01-30T03:09:43;14.95;;;8.40;;
12966;SDS011;6548;49.996;8.238;2023-01-30T03:12:17;20.30;;;8.35;;
12966;SDS011;6548;49.996;8.238;2023-01-30T03:14:58;19.60;;;9.25;;
12966;SDS011;6548;49.996;8.238;2023-01-30T03:17:29;25.90;;;9.80;;
12966;SDS011;6548;49.996;8.238;2023-01-30T03:19:56;16.67;;;8.68;;
12966;SDS011;6548;49.996;8.238;2023-01-30T03:22:23;21.15;;;9.27;;
12966;SDS011;6548;49.996;8.238;2023-01-30T03:24:49;21.50;;;9.27;;
12966;SDS011;6548;49.996;8.238;2023-01-30T03:27:16;15.30;;;7.60;;
12966;SDS011;6548;49.996;8.238;2023-01-30T03:29:43;15.57;;;7.68;;
12966;SDS011;6548;49.996;8.238;2023-01-30T03:32:08;21.67;;;9.70;;
12966;SDS011;6548;49.996;8.238;2023-01-30T03:34:34;22.85;;;9.73;;
12966;SDS011;6548;49.996;8.238;2023-01-30T03:36:59;12.73;;;6.97;;
12966;SDS011;6548;49.996;8.238;2023-01-30T03:39:25;9.43;;;5.45;;
12966;SDS011;6548;49.996;8.238;2023-01-30T03:41:51;24.10;;;10.80;;
12966;SDS011;6548;49.996;8.238;2023-01-30T03:44:18;19.92;;;9.27;;
12966;SDS011;6548;49.996;8.238;2023-01-30T03:46:43;16.50;;;8.43;;
12966;SDS011;6548;49.996;8.238;2023-01-30T03:49:09;20.52;;;10.15;;
12966;SDS011;6548;49.996;8.238;2023-01-30T03:51:34;16.42;;;7.05;;
12966;SDS011;6548;49.996;8.238;2023-01-30T03:54:00;14.15;;;5.50;;
12966;SDS011;6548;49.996;8.238;2023-01-30T03:56:26;13.48;;;6.18;;
12966;SDS011;6548;49.996;8.238;2023-01-30T03:58:51;24.27;;;10.07;;
12966;SDS011;6548;49.996;8.238;2023-01-30T04:01:17;22.42;;;8.75;;
12966;SDS011;6548;49.996;8.238;2023-01-30T04:03:43;13.68;;;6.70;;
12966;SDS011;6548;49.996;8.238;2023-01-30T04:06:08;18.50;;;8.23;;
12966;SDS011;6548;49.996;8.238;2023-01-30T04:08:34;26.40;;;12.02;;
12966;SDS011;6548;49.996;8.238;2023-01-30T04:10:59;13.27;;;7.40;;
12966;SDS011;6548;49.996;8.238;2023-01-30T04:13:25;22.67;;;9.27;;
12966;SDS011;6548;49.996;8.238;2023-01-30T04:15:50;13.32;;;7.72;;
12966;SDS011;6548;49.996;8.238;2023-01-30T04:18:16;26.48;;;10.70;;
12966;SDS011;6548;49.996;8.238;2023-01-30T04:20:41;21.55;;;9.90;;
12966;SDS011;6548;49.996;8.238;2023-01-30T04:23:07;19.00;;;9.50;;
12966;SDS011;6548;49.996;8.238;2023-01-30T04:25:32;21.10;;;9.85;;
12966;SDS011;6548;49.996;8.238;2023-01-30T04:27:58;16.48;;;8.00;;
12966;SDS011;6548;49.996;8.238;2023-01-30T04:30:23;12.98;;;7.72;;
12966;SDS011;6548;49.996;8.238;2023-01-30T04:32:49;23.67;;;10.80;;
12966;SDS011;6548;49.996;8.238;2023-01-30T04:35:15;26.40;;;11.65;;
12966;SDS011;6548;49.996;8.238;2023-01-30T04:37:40;20.35;;;8.65;;
12966;SDS011;6548;49.996;8.238;2023-01-30T04:40:06;21.60;;;10.20;;
12966;SDS011;6548;49.996;8.238;2023-01-30T04:42:32;14.73;;;8.45;;
12966;SDS011;6548;49.996;8.238;2023-01-30T04:44:57;21.77;;;10.02;;
12966;SDS011;6548;49.996;8.238;2023-01-30T04:47:23;24.38;;;11.27;;
12966;SDS011;6548;49.996;8.238;2023-01-30T04:49:48;22.75;;;10.68;;
12966;SDS011;6548;49.996;8.238;2023-01-30T04:52:14;17.70;;;6.90;;
12966;SDS011;6548;49.996;8.238;2023-01-30T04:54:39;16.30;;;7.65;;
12966;SDS011;6548;49.996;8.238;2023-01-30T04:57:05;18.33;;;8.15;;
12966;SDS011;6548;49.996;8.238;2023-01-30T04:59:30;12.82;;;5.85;;
12966;SDS011;6548;49.996;8.238;2023-01-30T05:01:56;17.83;;;8.32;;
12966;SDS011;6548;49.996;8.238;2023-01-30T05:04:22;18.77;;;8.75;;
12966;SDS011;6548;49.996;8.238;2023-01-30T05:06:47;16.48;;;7.05;;
12966;SDS011;6548;49.996;8.238;2023-01-30T05:09:13;15.05;;;8.82;;
12966;SDS011;6548;49.996;8.238;2023-01-30T05:11:38;14.88;;;6.43;;
12966;SDS011;6548;49.996;8.238;2023-01-30T05:14:04;16.15;;;8.25;;
12966;SDS011;6548;49.996;8.238;2023-01-30T05:16:30;17.40;;;6.25;;
12966;SDS011;6548;49.996;8.238;2023-01-30T05:18:55;15.82;;;7.32;;
12966;SDS011;6548;49.996;8.238;2023-01-30T05:21:22;20.20;;;9.13;;
12966;SDS011;6548;49.996;8.238;2023-01-30T05:23:51;21.00;;;9.68;;
12966;SDS011;6548;49.996;8.238;2023-01-30T05:26:18;17.88;;;8.13;;
12966;SDS011;6548;49.996;8.238;2023-01-30T05:28:44;17.35;;;9.20;;
12966;SDS011;6548;49.996;8.238;2023-01-30T05:31:16;11.30;;;7.20;;
12966;SDS011;6548;49.996;8.238;2023-01-30T05:33:41;16.83;;;7.82;;
12966;SDS011;6548;49.996;8.238;2023-01-30T05:36:07;16.20;;;7.63;;
12966;SDS011;6548;49.996;8.238;2023-01-30T05:38:38;15.32;;;7.78;;
12966;SDS011;6548;49.996;8.238;2023-01-30T05:41:05;13.50;;;7.93;;
12966;SDS011;6548;49.996;8.238;2023-01-30T05:43:32;12.80;;;6.15;;
12966;SDS011;6548;49.996;8.238;2023-01-30T05:45:58;18.77;;;8.35;;
12966;SDS011;6548;49.996;8.238;2023-01-30T05:48:26;15.10;;;6.22;;
12966;SDS011;6548;49.996;8.238;2023-01-30T05:50:53;18.13;;;8.18;;
12966;SDS011;6548;49.996;8.238;2023-01-30T05:53:22;13.10;;;5.03;;
12966;SDS011;6548;49.996;8.238;2023-01-30T05:55:55;11.70;;;6.88;;
12966;SDS011;6548;49.996;8.238;2023-01-30T05:58:22;12.88;;;6.15;;
12966;SDS011;6548;49.996;8.238;2023-01-30T06:00:48;18.60;;;8.00;;
12966;SDS011;6548;49.996;8.238;2023-01-30T06:03:14;9.68;;;5.00;;
12966;SDS011;6548;49.996;8.238;2023-01-30T06:05:39;15.25;;;8.02;;
12966;SDS011;6548;49.996;8.238;2023-01-30T06:08:05;21.00;;;8.55;;
12966;SDS011;6548;49.996;8.238;2023-01-30T06:10:32;9.77;;;5.10;;
12966;SDS011;6548;49.996;8.238;2023-01-30T06:12:58;9.98;;;5.53;;
12966;SDS011;6548;49.996;8.238;2023-01-30T06:15:23;13.27;;;6.95;;
12966;SDS011;6548;49.996;8.238;2023-01-30T06:17:49;12.43;;;5.57;;
12966;SDS011;6548;49.996;8.238;2023-01-30T06:20:14;13.52;;;7.53;;
12966;SDS011;6548;49.996;8.238;2023-01-30T06:22:40;14.52;;;5.75;;
12966;SDS011;6548;49.996;8.238;2023-01-30T06:25:05;11.02;;;6.47;;
12966;SDS011;6548;49.996;8.238;2023-01-30T06:27:31;15.68;;;8.45;;
12966;SDS011;6548;49.996;8.238;2023-01-30T06:29:57;13.57;;;6.13;;
12966;SDS011;6548;49.996;8.238;2023-01-30T06:32:22;13.48;;;6.10;;
12966;SDS011;6548;49.996;8.238;2023-01-30T06:34:48;13.82;;;7.50;;
12966;SDS011;6548;49.996;8.238;2023-01-30T06:37:13;11.52;;;5.10;;
12966;SDS011;6548;49.996;8.238;2023-01-30T06:39:39;15.30;;;6.70;;
12966;SDS011;6548;49.996;8.238;2023-01-30T06:42:04;6.95;;;4.35;;
12966;SDS011;6548;49.996;8.238;2023-01-30T06:44:31;15.05;;;5.68;;
12966;SDS011;6548;49.996;8.238;2023-01-30T06:46:56;9.60;;;5.95;;
12966;SDS011;6548;49.996;8.238;2023-01-30T06:49:22;7.80;;;4.18;;
12966;SDS011;6548;49.996;8.238;2023-01-30T06:51:47;8.02;;;4.85;;
12966;SDS011;6548;49.996;8.238;2023-01-30T06:54:13;12.60;;;6.22;;
12966;SDS011;6548;49.996;8.238;2023-01-30T06:56:38;13.18;;;6.05;;
12966;SDS011;6548;49.996;8.238;2023-01-30T06:59:04;10.25;;;5.68;;
12966;SDS011;6548;49.996;8.238;2023-01-30T07:01:29;10.77;;;5.45;;
12966;SDS011;6548;49.996;8.238;2023-01-30T07:03:55;11.18;;;4.32;;
12966;SDS011;6548;49.996;8.238;2023-01-30T07:06:21;8.48;;;4.45;;
12966;SDS011;6548;49.996;8.238;2023-01-30T07:08:46;15.25;;;7.63;;
12966;SDS011;6548;49.996;8.238;2023-01-30T07:11:12;9.20;;;5.43;;
12966;SDS011;6548;49.996;8.238;2023-01-30T07:13:37;8.90;;;5.25;;
12966;SDS011;6548;49.996;8.238;2023-01-30T07:16:03;14.60;;;7.22;;
12966;SDS011;6548;49.996;8.238;2023-01-30T07:18:29;11.55;;;5.10;;
12966;SDS011;6548;49.996;8.238;2023-01-30T07:20:54;13.48;;;6.60;;
12966;SDS011;6548;49.996;8.238;2023-01-30T07:23:20;10.20;;;5.97;;
12966;SDS011;6548;49.996;8.238;2023-01-30T07:25:45;14.18;;;7.88;;
12966;SDS011;6548;49.996;8.238;2023-01-30T07:28:11;7.38;;;5.10;;
12966;SDS011;6548;49.996;8.238;2023-01-30T07:30:36;14.07;;;6.93;;
12966;SDS011;6548;49.996;8.238;2023-01-30T07:33:03;15.50;;;7.72;;
12966;SDS011;6548;49.996;8.238;2023-01-30T07:35:30;10.65;;;5.47;;
12966;SDS011;6548;49.996;8.238;2023-01-30T07:37:56;13.18;;;6.50;;
12966;SDS011;6548;49.996;8.238;2023-01-30T07:40:22;10.60;;;4.75;;
12966;SDS011;6548;49.996;8.238;2023-01-30T07:42:55;13.63;;;5.75;;
12966;SDS011;6548;49.996;8.238;2023-01-30T07:45:22;14.98;;;7.38;;
12966;SDS011;6548;49.996;8.238;2023-01-30T07:47:48;13.93;;;4.72;;
12966;SDS011;6548;49.996;8.238;2023-01-30T07:50:13;8.75;;;5.93;;
12966;SDS011;6548;49.996;8.238;2023-01-30T07:52:39;15.73;;;8.95;;
12966;SDS011;6548;49.996;8.238;2023-01-30T07:55:05;10.60;;;5.05;;
12966;SDS011;6548;49.996;8.238;2023-01-30T07:57:31;9.02;;;4.93;;
12966;SDS011;6548;49.996;8.238;2023-01-30T07:59:56;13.23;;;5.95;;
12966;SDS011;6548;49.996;8.238;2023-01-30T08:02:22;10.80;;;5.82;;
12966;SDS011;6548;49.996;8.238;2023-01-30T08:04:47;11.77;;;6.60;;
12966;SDS011;6548;49.996;8.238;2023-01-30T08:07:13;7.95;;;5.18;;
12966;SDS011;6548;49.996;8.238;2023-01-30T08:09:38;8.57;;;4.55;;
12966;SDS011;6548;49.996;8.238;2023-01-30T08:12:04;5.90;;;2.72;;
12966;SDS011;6548;49.996;8.238;2023-01-30T08:14:29;7.20;;;4.68;;
12966;SDS011;6548;49.996;8.238;2023-01-30T08:16:55;6.20;;;3.15;;
12966;SDS011;6548;49.996;8.238;2023-01-30T08:19:21;9.98;;;4.97;;
12966;SDS011;6548;49.996;8.238;2023-01-30T08:21:46;7.38;;;4.47;;
12966;SDS011;6548;49.996;8.238;2023-01-30T08:24:12;5.72;;;3.85;;
12966;SDS011;6548;49.996;8.238;2023-01-30T08:26:37;4.70;;;2.72;;
12966;SDS011;6548;49.996;8.238;2023-01-30T08:29:03;6.00;;;3.28;;
12966;SDS011;6548;49.996;8.238;2023-01-30T08:31:29;4.93;;;3.08;;
12966;SDS011;6548;49.996;8.238;2023-01-30T08:33:54;4.00;;;2.55;;
12966;SDS011;6548;49.996;8.238;2023-01-30T08:36:20;3.63;;;2.53;;
12966;SDS011;6548;49.996;8.238;2023-01-30T08:38:45;5.28;;;3.33;;
12966;SDS011;6548;49.996;8.238;2023-01-30T08:41:11;3.90;;;2.63;;
12966;SDS011;6548;49.996;8.238;2023-01-30T08:43:36;4.15;;;2.42;;
12966;SDS011;6548;49.996;8.238;2023-01-30T08:46:02;6.70;;;2.45;;
12966;SDS011;6548;49.996;8.238;2023-01-30T08:48:28;5.18;;;2.70;;
12966;SDS011;6548;49.996;8.238;2023-01-30T08:50:54;4.25;;;2.35;;
12966;SDS011;6548;49.996;8.238;2023-01-30T08:53:20;2.90;;;2.03;;
12966;SDS011;6548;49.996;8.238;2023-01-30T08:55:48;5.90;;;2.67;;
12966;SDS011;6548;49.996;8.238;2023-01-30T08:58:18;2.55;;;1.67;;
12966;SDS011;6548;49.996;8.238;2023-01-30T09:00:44;3.83;;;1.77;;
12966;SDS011;6548;49.996;8.238;2023-01-30T09:03:11;1.10;;;1.00;;
12966;SDS011;6548;49.996;8.238;2023-01-30T09:05:37;2.20;;;1.52;;
12966;SDS011;6548;49.996;8.238;2023-01-30T09:08:03;2.58;;;1.83;;
12966;SDS011;6548;49.996;8.238;2023-01-30T09:10:29;1.80;;;1.60;;
12966;SDS011;6548;49.996;8.238;2023-01-30T09:12:54;4.57;;;1.77;;
12966;SDS011;6548;49.996;8.238;2023-01-30T09:15:20;2.00;;;1.38;;
12966;SDS011;6548;49.996;8.238;2023-01-30T09:17:46;2.65;;;1.70;;
12966;SDS011;6548;49.996;8.238;2023-01-30T09:20:11;2.50;;;1.33;;
12966;SDS011;6548;49.996;8.238;2023-01-30T09:22:37;1.25;;;1.15;;
12966;SDS011;6548;49.996;8.238;2023-01-30T09:25:03;4.65;;;1.95;;
12966;SDS011;6548;49.996;8.238;2023-01-30T09:27:30;3.00;;;2.30;;
12966;SDS011;6548;49.996;8.238;2023-01-30T09:29:56;2.97;;;2.13;;
12966;SDS011;6548;49.996;8.238;2023-01-30T09:32:21;2.78;;;1.40;;
12966;SDS011;6548;49.996;8.238;2023-01-30T09:34:47;2.22;;;1.45;;
12966;SDS011;6548;49.996;8.238;2023-01-30T09:37:12;2.58;;;1.42;;
12966;SDS011;6548;49.996;8.238;2023-01-30T09:39:38;1.55;;;0.88;;
12966;SDS011;6548;49.996;8.238;2023-01-30T09:47:23;3.45;;;1.63;;
12966;SDS011;6548;49.996;8.238;2023-01-30T09:55:35;4.68;;;1.42;;
12966;SDS011;6548;49.996;8.238;2023-01-30T09:58:07;3.28;;;1.27;;
12966;SDS011;6548;49.996;8.238;2023-01-30T10:00:42;3.15;;;1.42;;
12966;SDS011;6548;49.996;8.238;2023-01-30T10:03:12;1.50;;;1.15;;
12966;SDS011;6548;49.996;8.238;2023-01-30T10:05:47;1.42;;;0.95;;
12966;SDS011;6548;49.996;8.238;2023-01-30T10:11:32;1.63;;;1.00;;
12966;SDS011;6548;49.996;8.238;2023-01-30T10:14:34;1.08;;;0.95;;
12966;SDS011;6548;49.996;8.238;2023-01-30T10:17:27;0.73;;;0.70;;
12966;SDS011;6548;49.996;8.238;2023-01-30T10:27:59;0.65;;;0.65;;
12966;SDS011;6548;49.996;8.238;2023-01-30T10:30:29;0.93;;;0.82;;
12966;SDS011;6548;49.996;8.238;2023-01-30T10:33:00;1.30;;;1.00;;
12966;SDS011;6548;49.996;8.238;2023-01-30T10:35:35;2.20;;;1.25;;
12966;SDS011;6548;49.996;8.238;2023-01-30T10:38:16;1.45;;;0.85;;
12966;SDS011;6548;49.996;8.238;2023-01-30T10:40:59;1.38;;;0.70;;
12966;SDS011;6548;49.996;8.238;2023-01-30T10:43:44;1.85;;;0.80;;
12966;SDS011;6548;49.996;8.238;2023-01-30T10:49:00;1.73;;;0.95;;
12966;SDS011;6548;49.996;8.238;2023-01-30T10:55:05;2.30;;;1.15;;
12966;SDS011;6548;49.996;8.238;2023-01-30T11:00:49;1.50;;;0.50;;
12966;SDS011;6548;49.996;8.238;2023-01-30T11:03:40;1.20;;;0.57;;
12966;SDS011;6548;49.996;8.238;2023-01-30T11:06:12;0.57;;;0.45;;
12966;SDS011;6548;49.996;8.238;2023-01-30T11:08:41;0.85;;;0.50;;
12966;SDS011;6548;49.996;8.238;2023-01-30T11:13:44;0.80;;;0.70;;
12966;SDS011;6548;49.996;8.238;2023-01-30T11:16:10;0.60;;;0.50;;
12966;SDS011;6548;49.996;8.238;2023-01-30T11:18:44;0.77;;;0.65;;
12966;SDS011;6548;49.996;8.238;2023-01-30T11:21:22;0.73;;;0.52;;
12966;SDS011;6548;49.996;8.238;2023-01-30T11:23:50;0.90;;;0.70;;
12966;SDS011;6548;49.996;8.238;2023-01-30T11:29:23;0.77;;;0.60;;
12966;SDS011;6548;49.996;8.238;2023-01-30T11:31:52;0.32;;;0.32;;
12966;SDS011;6548;49.996;8.238;2023-01-30T11:34:20;0.85;;;0.60;;
12966;SDS011;6548;49.996;8.238;2023-01-30T11:36:47;2.15;;;0.82;;
12966;SDS011;6548;49.996;8.238;2023-01-30T11:44:24;2.63;;;0.63;;
12966;SDS011;6548;49.996;8.238;2023-01-30T11:46:51;0.55;;;0.38;;
12966;SDS011;6548;49.996;8.238;2023-01-30T11:49:17;0.55;;;0.55;;
12966;SDS011;6548;49.996;8.238;2023-01-30T11:51:45;2.55;;;1.40;;
12966;SDS011;6548;49.996;8.238;2023-01-30T11:57:00;1.55;;;0.60;;
12966;SDS011;6548;49.996;8.238;2023-01-30T11:59:32;1.67;;;0.70;;
12966;SDS011;6548;49.996;8.238;2023-01-30T12:02:04;0.80;;;0.50;;
12966;SDS011;6548;49.996;8.238;2023-01-30T12:04:49;0.93;;;0.60;;
12966;SDS011;6548;49.996;8.238;2023-01-30T12:09:48;0.93;;;0.90;;
12966;SDS011;6548;49.996;8.238;2023-01-30T12:12:28;1.20;;;0.65;;
12966;SDS011;6548;49.996;8.238;2023-01-30T12:15:38;2.05;;;0.90;;
12966;SDS011;6548;49.996;8.238;2023-01-30T12:17:58;1.45;;;0.82;;
12966;SDS011;6548;49.996;8.238;2023-01-30T12:20:39;3.22;;;1.13;;
12966;SDS011;6548;49.996;8.238;2023-01-30T12:23:38;1.13;;;0.82;;
12966;SDS011;6548;49.996;8.238;2023-01-30T12:26:19;0.77;;;0.50;;
12966;SDS011;6548;49.996;8.238;2023-01-30T12:33:57;1.15;;;0.80;;
12966;SDS011;6548;49.996;8.238;2023-01-30T12:36:26;1.63;;;0.98;;
12966;SDS011;6548;49.996;8.238;2023-01-30T12:41:47;1.40;;;1.00;;
12966;SDS011;6548;49.996;8.238;2023-01-30T12:44:30;1.85;;;0.77;;
12966;SDS011;6548;49.996;8.238;2023-01-30T12:50:19;1.85;;;1.15;;
12966;SDS011;6548;49.996;8.238;2023-01-30T13:03:47;3.38;;;0.77;;
12966;SDS011;6548;49.996;8.238;2023-01-30T13:06:41;1.67;;;0.90;;
12966;SDS011;6548;49.996;8.238;2023-01-30T13:09:15;0.73;;;0.55;;
12966;SDS011;6548;49.996;8.238;2023-01-30T13:12:22;2.25;;;1.95;;
12966;SDS011;6548;49.996;8.238;2023-01-30T13:14:52;1.02;;;0.80;;
12966;SDS011;6548;49.996;8.238;2023-01-30T13:23:23;1.42;;;1.13;;
12966;SDS011;6548;49.996;8.238;2023-01-30T13:26:12;2.75;;;1.20;;
12966;SDS011;6548;49.996;8.238;2023-01-30T13:28:42;2.65;;;0.90;;
12966;SDS011;6548;49.996;8.238;2023-01-30T13:31:14;1.02;;;0.50;;
12966;SDS011;6548;49.996;8.238;2023-01-30T13:33:45;1.92;;;0.60;;
12966;SDS011;6548;49.996;8.238;2023-01-30T13:36:19;1.77;;;0.60;;
12966;SDS011;6548;49.996;8.238;2023-01-30T13:41:30;1.45;;;0.70;;
12966;SDS011;6548;49.996;8.238;2023-01-30T13:44:02;1.25;;;0.80;;
12966;SDS011;6548;49.996;8.238;2023-01-30T13:46:39;3.28;;;0.65;;
12966;SDS011;6548;49.996;8.238;2023-01-30T13:49:08;2.63;;;1.55;;
12966;SDS011;6548;49.996;8.238;2023-01-30T13:51:47;4.53;;;1.10;;
12966;SDS011;6548;49.996;8.238;2023-01-30T14:08:19;2.60;;;1.10;;
12966;SDS011;6548;49.996;8.238;2023-01-30T14:10:47;2.38;;;1.52;;
12966;SDS011;6548;49.996;8.238;2023-01-30T14:13:14;8.75;;;2.05;;
12966;SDS011;6548;49.996;8.238;2023-01-30T14:15:51;1.17;;;1.08;;
12966;SDS011;6548;49.996;8.238;2023-01-30T14:18:31;2.28;;;1.58;;
12966;SDS011;6548;49.996;8.238;2023-01-30T14:21:13;4.10;;;1.77;;
12966;SDS011;6548;49.996;8.238;2023-01-30T14:23:59;4.55;;;1.70;;
12966;SDS011;6548;49.996;8.238;2023-01-30T14:32:01;6.38;;;1.70;;
12966;SDS011;6548;49.996;8.238;2023-01-30T14:35:19;5.53;;;1.50;;
12966;SDS011;6548;49.996;8.238;2023-01-30T14:37:29;3.88;;;2.00;;
12966;SDS011;6548;49.996;8.238;2023-01-30T14:48:26;5.93;;;4.00;;
12966;SDS011;6548;49.996;8.238;2023-01-30T14:51:09;4.45;;;2.58;;
12966;SDS011;6548;49.996;8.238;2023-01-30T14:53:52;4.55;;;1.90;;
12966;SDS011;6548;49.996;8.238;2023-01-30T15:04:43;4.20;;;1.88;;
12966;SDS011;6548;49.996;8.238;2023-01-30T15:07:16;4.47;;;1.33;;
12966;SDS011;6548;49.996;8.238;2023-01-30T15:15:18;7.32;;;2.03;;
12966;SDS011;6548;49.996;8.238;2023-01-30T15:23:37;4.25;;;1.67;;
12966;SDS011;6548;49.996;8.238;2023-01-30T15:31:55;8.25;;;2.72;;
12966;SDS011;6548;49.996;8.238;2023-01-30T15:34:29;3.50;;;1.98;;
12966;SDS011;6548;49.996;8.238;2023-01-30T15:36:56;7.38;;;1.65;;
12966;SDS011;6548;49.996;8.238;2023-01-30T15:39:23;6.45;;;1.30;;
12966;SDS011;6548;49.996;8.238;2023-01-30T15:41:50;7.75;;;2.58;;
12966;SDS011;6548;49.996;8.238;2023-01-30T15:44:20;9.32;;;2.28;;
12966;SDS011;6548;49.996;8.238;2023-01-30T15:49:45;5.43;;;1.95;;
12966;SDS011;6548;49.996;8.238;2023-01-30T15:52:24;1.98;;;1.33;;
12966;SDS011;6548;49.996;8.238;2023-01-30T15:55:19;5.82;;;1.85;;
12966;SDS011;6548;49.996;8.238;2023-01-30T15:57:54;5.25;;;1.75;;
12966;SDS011;6548;49.996;8.238;2023-01-30T16:00:29;6.53;;;2.03;;
12966;SDS011;6548;49.996;8.238;2023-01-30T16:02:58;5.53;;;2.03;;
12966;SDS011;6548;49.996;8.238;2023-01-30T16:05:26;12.07;;;2.55;;
12966;SDS011;6548;49.996;8.238;2023-01-30T16:07:56;7.47;;;1.85;;
12966;SDS011;6548;49.996;8.238;2023-01-30T16:10:33;6.97;;;2.05;;
12966;SDS011;6548;49.996;8.238;2023-01-30T16:13:08;6.07;;;1.30;;
12966;SDS011;6548;49.996;8.238;2023-01-30T16:15:35;3.90;;;1.08;;
12966;SDS011;6548;49.996;8.238;2023-01-30T16:20:52;3.25;;;1.15;;
12966;SDS011;6548;49.996;8.238;2023-01-30T16:23:50;3.60;;;2.03;;
12966;SDS011;6548;49.996;8.238;2023-01-30T16:26:15;5.28;;;1.60;;
12966;SDS011;6548;49.996;8.238;2023-01-30T16:28:42;8.82;;;1.98;;
12966;SDS011;6548;49.996;8.238;2023-01-30T16:31:09;9.02;;;1.85;;
12966;SDS011;6548;49.996;8.238;2023-01-30T16:33:35;5.95;;;1.80;;
12966;SDS011;6548;49.996;8.238;2023-01-30T16:36:02;8.80;;;3.30;;
12966;SDS011;6548;49.996;8.238;2023-01-30T16:38:44;23.02;;;3.20;;
12966;SDS011;6548;49.996;8.238;2023-01-30T16:46:55;2.83;;;1.27;;
12966;SDS011;6548;49.996;8.238;2023-01-30T16:49:46;8.48;;;2.00;;
12966;SDS011;6548;49.996;8.238;2023-01-30T16:52:17;3.28;;;1.10;;
12966;SDS011;6548;49.996;8.238;2023-01-30T16:54:53;6.45;;;1.50;;
12966;SDS011;6548;49.996;8.238;2023-01-30T16:57:39;6.82;;;1.58;;
12966;SDS011;6548;49.996;8.238;2023-01-30T17:00:22;1.83;;;0.85;;
12966;SDS011;6548;49.996;8.238;2023-01-30T17:03:00;3.75;;;1.85;;
12966;SDS011;6548;49.996;8.238;2023-01-30T17:05:29;8.90;;;2.05;;
12966;SDS011;6548;49.996;8.238;2023-01-30T17:08:01;0.70;;;0.70;;
12966;SDS011;6548;49.996;8.238;2023-01-30T17:12:52;4.63;;;1.08;;
12966;SDS011;6548;49.996;8.238;2023-01-30T17:17:44;3.60;;;1.30;;
12966;SDS011;6548;49.996;8.238;2023-01-30T17:20:11;4.22;;;1.38;;
12966;SDS011;6548;49.996;8.238;2023-01-30T17:22:39;5.63;;;1.35;;
12966;SDS011;6548;49.996;8.238;2023-01-30T17:27:55;6.68;;;1.60;;
12966;SDS011;6548;49.996;8.238;2023-01-30T17:30:22;9.90;;;2.03;;
12966;SDS011;6548;49.996;8.238;2023-01-30T17:32:47;5.25;;;1.85;;
12966;SDS011;6548;49.996;8.238;2023-01-30T17:35:14;4.50;;;1.33;;
12966;SDS011;6548;49.996;8.238;2023-01-30T17:37:40;2.67;;;1.50;;
12966;SDS011;6548;49.996;8.238;2023-01-30T17:40:49;11.77;;;1.60;;
12966;SDS011;6548;49.996;8.238;2023-01-30T17:42:57;7.20;;;1.77;;
12966;SDS011;6548;49.996;8.238;2023-01-30T17:45:23;5.07;;;2.00;;
12966;SDS011;6548;49.996;8.238;2023-01-30T17:47:48;4.82;;;1.30;;
12966;SDS011;6548;49.996;8.238;2023-01-30T17:50:14;4.13;;;2.65;;
12966;SDS011;6548;49.996;8.238;2023-01-30T17:52:40;14.07;;;1.45;;
12966;SDS011;6548;49.996;8.238;2023-01-30T17:55:08;5.50;;;2.10;;
12966;SDS011;6548;49.996;8.238;2023-01-30T17:57:38;10.35;;;2.25;;
12966;SDS011;6548;49.996;8.238;2023-01-30T18:00:06;9.75;;;1.98;;
12966;SDS011;6548;49.996;8.238;2023-01-30T18:02:38;9.07;;;1.85;;